AirNav  
 
 1212 users online  

KNHU Norfolk Naval Station Airport
Norfolk, Virginia, USA


FAA INFORMATION EFFECTIVE 18 MAY 2023

Location

FAA Identifier: NHU
Lat/Long: 36-57-20.3500N 076-18-13.5250W
36-57.339167N 076-18.225417W
36.9556528,-76.3037569
(estimated)
Elevation: 10 ft. / 3 m (estimated)
Variation: 10W (1990)
From city: 7 miles N of NORFOLK, VA
Time zone: UTC -4 (UTC -5 during Standard Time)
Zip code: 23511

Airport Operations

Airport use: Private use. Permission required prior to landing
Activation date: 04/2021
Control tower: yes
ARTCC: WASHINGTON CENTER
FSS: LEESBURG FLIGHT SERVICE STATION
Attendance: 
Wind indicator: yes
Segmented circle: no

Airport Communications

WX ASOS at ORF (6 nm SE): PHONE 757-460-9348
WX AWOS-3PT at PVG (13 nm SW): 118.375 (757-465-2175)
WX ASOS at PHF (14 nm NW): PHONE 757-874-3682
WX ASOS at NTU (15 nm SE): PHONE DSN 433-3619 or 757-433-3619
WX AWOS-3 at CPK (17 nm S): 123.675 (757-204-4290)

Nearby radio navigation aids

VOR radial/distance  VOR name  Freq  Var
ORFr315/6.3NORFOLK VORTAC116.9007W
CCVr222/27.7CAPE CHARLES VORTAC112.2010W
HCMr154/35.4HARCUM VORTAC108.8007W
FKNr076/37.0FRANKLIN VORTAC110.6009W

 
NDB name  Hdg/Dist  Freq  Var  ID
INGLE349/7.432909WOR --- .-.
WAKEFIELD104/33.527411WAKQ .- -.- --.-

Airport Services

Runway Information

Runway 9/27

Dimensions: 1705 x 150 ft. / 520 x 46 m
Surface: asphalt, in excellent condition
RUNWAY 9  RUNWAY 27
Latitude: 36-57.329667N36-57.348667N
Longitude: 076-18.400167W076-18.050667W
Elevation: 8.8 ft.9.1 ft.
Traffic pattern: leftleft
Runway heading: 096 magnetic, 086 true276 magnetic, 266 true
Touchdown point: yes, no lightsyes, no lights

Helipad H3

Dimensions: 120 x 120 ft. / 37 x 37 m
Surface: concrete, in excellent condition
Latitude: 36-57.258000N
Longitude: 076-18.326667W
Elevation: 9.4 ft.
Traffic pattern: leftleft

Helipad H4

Dimensions: 120 x 120 ft. / 37 x 37 m
Surface: concrete, in excellent condition
Latitude: 36-57.208667N
Longitude: 076-18.322667W
Elevation: 8.2 ft.
Traffic pattern: leftleft

Helipad H5

Dimensions: 120 x 120 ft. / 37 x 37 m
Surface: concrete, in excellent condition
Latitude: 36-57.012667N
Longitude: 076-16.665667W
Elevation: 8.7 ft.
Traffic pattern: leftleft

Helipad H6

Dimensions: 120 x 120 ft. / 37 x 37 m
Surface: concrete, in excellent condition
Latitude: 36-56.975667N
Longitude: 076-16.807667W
Elevation: 8.9 ft.
Traffic pattern: leftleft

Helipad H7

Dimensions: 120 x 120 ft. / 37 x 37 m
Surface: concrete, in excellent condition
Latitude: 36-56.938000N
Longitude: 076-16.936167W
Elevation: 8.7 ft.
Traffic pattern: leftleft

Helipad H8

Dimensions: 120 x 120 ft. / 37 x 37 m
Surface: concrete, in excellent condition
Latitude: 36-56.852833N
Longitude: 076-17.201500W
Elevation: 9.0 ft.
Traffic pattern: leftleft

Helipad H9

Dimensions: 120 x 120 ft. / 37 x 37 m
Surface: concrete, in excellent condition
Latitude: 36-56.900500N
Longitude: 076-17.642833W
Elevation: 9.4 ft.
Traffic pattern: leftleft

Helipad H1

Dimensions: 75 x 75 ft. / 23 x 23 m
Surface: asphalt, in excellent condition
Latitude: 36-57.346000N
Longitude: 076-18.101667W
Elevation: 9.1 ft.
Traffic pattern: leftleft

Helipad H2

Dimensions: 75 x 75 ft. / 23 x 23 m
Surface: asphalt, in excellent condition
Latitude: 36-57.333000N
Longitude: 076-18.321667W
Elevation: 8.8 ft.
Traffic pattern: leftleft

Airport Ownership and Management from official FAA records

Ownership: U.S. Navy
Owner: NAVAL STATION NORFOLK
1530 GILBERT ST STE 2000
NORFOLK, VA 23511
Phone 757-322-2302
Manager: SHANE DUDLEY
8610 AIR CARGO ROAD
NORFOLK, VA 23511
Phone 757-322-3420

Instrument Procedures

NOTE: All procedures below are presented as PDF files. If you need a reader for these files, you should download the free Adobe Reader.

NOT FOR NAVIGATION. Please procure official charts for flight.
FAA instrument procedures published for use from 18 May 2023 at 0901Z to 15 June 2023 at 0900z.

 
IAPs - Instrument Approach Procedures
COPTER RNAV (GPS) 141   download (121KB)
COPTER RNAV (GPS) 276   download (117KB)
 
Departure Procedures
COPTER PRIDE ONE   2 pages: [1] [2] (229KB)
NOTE: Special Take-Off Minimums/Departure Procedures apply   download (356KB)

Other nearby airports with instrument procedures:

KNGU - Norfolk Naval Station (Chambers Field) (1 nm SE)
KORF - Norfolk International Airport (6 nm SE)
KLFI - Langley Air Force Base (8 nm N)
KPVG - Hampton Roads Executive Airport (13 nm SW)
KPHF - Newport News/Williamsburg International Airport (14 nm NW)
KNTU - Oceana Naval Air Station (Apollo Soucek Field) (15 nm SE)
KCPK - Chesapeake Regional Airport (17 nm S)
KFAF - Felker Army Airfield (18 nm NW)
 
Loc | Ops | Rwys | IFR | FBO | Links
Com | Nav | Svcs | Stats | Notes
Aerial photo
No photo
 
Airport distance calculator
Flying to Norfolk Naval Station Airport? Find the distance to fly.

From to KNHU

Sunrise and sunset
Times for 08-Jun-2023
 Local
(UTC-4)
 Zulu
(UTC)
Morning civil twilight05:1609:16
Sunrise05:4609:46
Sunset20:2200:22
Evening civil twilight20:5300:53

Current date and time
Zulu (UTC)  09-Jun-2023 02:14:41
Local (UTC-4)  08-Jun-2023 22:14:41
 
METAR
KNGU 
3nm SE 
090159Z 17003KT 4SM HZ SCT250 14/12 A2979 RMK AO2 SLP089 T01390122 $
KORF 
6nm SE 
090151Z 19004KT 7SM CLR 16/13 A2978 RMK AO2 SLP083 T01560133
KLFI 
7nm NW 
090155Z AUTO 20003KT 8SM CLR 16/16 A2977 RMK AO2 SLP087 T01580156 $
KPVG 
13nm SW 
090156Z AUTO 7SM CLR 11/11 A2979 RMK AO2 SLP091 T01060106 $
KPHF 
14nm NW 
090154Z 00000KT 10SM FU SCT047 14/13 A2978 RMK AO2 SLP084 T01390128
KNTU 
16nm SE 
090156Z 00000KT 5SM HZ FEW300 14/13 A2977 RMK AO2 SLP083 T01390128
KCPK 
17nm S 
090155Z AUTO 00000KT 3SM CLR 13/12 A2978 RMK AO2 T01280120
KNFE 
18nm SE 
090156Z AUTO 00000KT 6SM HZ CLR 14/11 A2978 RMK AO2 SLP087 T01440106
KFAF 
18nm NW 
090155Z 15003KT 10SM CLR 15/14 A2976 RMK AO2A SLP081 T01510138 $
TAF
KNGU 
3nm SE 
0823/0923 09009G18KT 8000 HZ FEW045 BKN250 QNH2972INS BECMG 0900/0902 VRB04KT 8000 HZ FEW080 SCT280 QNH2974INS TEMPO 0906/0912 4800 HZ SCT025 SCT050 FM091500 33007KT 9000 HZ FEW050 SCT080 QNH2975INS TX25/0919Z TN15/0910Z FN00062
KORF 
6nm SE 
082106Z 0821/0918 04010KT 6SM HZ SCT035 FM082300 09005KT 5SM HZ SCT025 FM091300 35005KT 5SM HZ SCT025
KLFI 
7nm NW 
081908Z 0819/0923 01015G25KT 9999 SCT025 BKN030 BKN070 QNH2968INS BECMG 0819/0820 03012KT 9999 SCT020 BKN050 QNH2964INS BECMG 0823/0824 VRB06KT 9999 FEW050 SCT080 QNH2968INS TX24/0917Z TN14/0905Z
KPHF 
14nm NW 
082106Z 0821/0918 04005KT 6SM HZ SCT035 FM082300 10004KT 4SM HZ SCT025 FM091300 35006KT 5SM HZ SCT025
KNTU 
16nm SE 
0823/0923 06006KT 6000 HZ SCT300 QNH2967INS FM090700 VRB06KT 4800 HZ BKN070 QNH2970INS FM091800 34006KT 8000 HZ BKN080 OVC100 QNH2972INS TX24/0919Z TN15/0810Z FN20051
KFAF 
18nm NW 
081800Z 0818/0924 32009KT 4800 -RA HZ BKN015 QNH2964INS TEMPO 0818/0822 VRB12G18KT 3200 TSRA BKN010CB BECMG 0822/0823 VRB06KT 9000 HZ FEW020 SCT050 BKN070 QNH2964INS TX21/0818Z TN14/0910Z
NOTAMs
Click for the latest NOTAMs
NOTAMs are issued by the DoD/FAA and will open in a separate window not controlled by AirNav.

 

 
 

Would you like to see your business listed on this page?

 If your business provides an interesting product or service to pilots, flight crews, aircraft, or users of the Norfolk Naval Station Airport, you should consider listing it here.  To start the listing process, click on the button below
 
Add a business
 

Other Pages about Norfolk Naval Station Airport

Update a link
 
Copyright © AirNav, LLC. All rights reserved. Privacy Policy  Contact